createdAt,value
2022-09-07T00:02:17.127Z,96066.91
2022-09-07T00:04:44.035Z,96076.47
2022-09-07T00:07:10.478Z,96074.09
2022-09-07T00:09:37.123Z,96062.97
2022-09-07T00:12:04.160Z,96065.16
2022-09-07T00:14:30.640Z,96062.50
2022-09-07T00:16:57.015Z,96065.25
2022-09-07T00:19:23.886Z,96062.59
2022-09-07T00:21:50.346Z,96058.56
2022-09-07T00:24:16.691Z,96067.38
2022-09-07T00:26:43.492Z,96068.09
2022-09-07T00:29:11.493Z,96053.66
2022-09-07T00:31:37.943Z,96057.69
2022-09-07T00:34:05.373Z,96053.13
2022-09-07T00:36:31.731Z,96050.16
2022-09-07T00:38:58.410Z,96044.22
2022-09-07T00:41:25.425Z,96043.19
2022-09-07T00:43:55.296Z,96046.38
2022-09-07T00:46:26.108Z,96047.94
2022-09-07T00:49:19.803Z,96030.84
2022-09-07T00:51:54.187Z,96017.47
2022-09-07T00:54:24.195Z,96014.00
2022-09-07T00:56:52.831Z,96014.84
2022-09-07T00:59:25.344Z,96012.06
2022-09-07T01:01:52.308Z,96013.63
2022-09-07T01:04:19.974Z,96021.56
2022-09-07T01:06:46.414Z,96010.78
2022-09-07T01:09:17.253Z,95996.06
2022-09-07T01:11:50.971Z,95991.38
2022-09-07T01:14:21.820Z,96000.97
2022-09-07T01:16:50.879Z,95989.41
2022-09-07T01:19:26.889Z,95993.03
2022-09-07T01:22:24.408Z,95983.41
2022-09-07T01:25:11.211Z,95986.19
2022-09-07T01:28:15.668Z,95981.47
2022-09-07T01:30:54.671Z,95987.75
2022-09-07T01:33:45.464Z,95989.91
2022-09-07T01:36:24.952Z,95995.44
2022-09-07T01:38:55.053Z,96007.72
2022-09-07T01:41:30.492Z,96001.81
2022-09-07T01:44:07.767Z,96009.00
2022-09-07T01:46:44.068Z,96017.22
2022-09-07T01:49:22.355Z,96017.88
2022-09-07T01:51:53.584Z,96018.25
2022-09-07T01:54:31.557Z,96018.66
2022-09-07T01:57:03.437Z,96010.47
2022-09-07T01:59:40.311Z,96003.06
2022-09-07T02:02:15.091Z,95992.25
2022-09-07T02:04:50.289Z,95992.06
2022-09-07T02:07:26.846Z,95984.09
2022-09-07T02:10:02.542Z,95990.00
2022-09-07T02:12:46.439Z,95991.19
2022-09-07T02:15:27.168Z,95987.09
2022-09-07T02:18:03.399Z,96003.94
2022-09-07T02:20:35.515Z,96009.22
2022-09-07T02:23:07.212Z,96003.19
2022-09-07T02:25:38.830Z,96012.25
2022-09-07T02:28:21.841Z,96000.72
2022-09-07T02:30:48.459Z,96004.69
2022-09-07T02:33:14.954Z,96002.03
2022-09-07T02:35:41.944Z,96010.66
2022-09-07T02:38:09.107Z,96008.28
2022-09-07T02:40:35.815Z,96002.72
2022-09-07T02:43:10.672Z,96004.59
2022-09-07T02:46:01.361Z,96009.22
2022-09-07T02:48:35.291Z,96010.97
2022-09-07T02:51:14.391Z,95999.16
2022-09-07T02:53:59.478Z,96009.41
2022-09-07T02:56:45.503Z,96012.69
2022-09-07T02:59:17.654Z,96010.00
2022-09-07T03:02:06.793Z,96011.59
2022-09-07T03:05:03.878Z,96010.22
2022-09-07T03:07:37.524Z,96012.41
2022-09-07T03:10:07.006Z,96012.13
2022-09-07T03:12:47.925Z,96010.53
2022-09-07T03:15:21.246Z,96006.78
2022-09-07T03:17:48.139Z,96000.63
2022-09-07T03:20:16.974Z,96002.88
2022-09-07T03:22:45.036Z,96005.59
2022-09-07T03:25:11.527Z,96002.28
2022-09-07T03:27:37.870Z,96010.53
2022-09-07T03:30:09.302Z,95998.56
2022-09-07T03:32:37.931Z,95997.78
2022-09-07T03:35:06.806Z,95987.38
2022-09-07T03:37:36.855Z,95992.84
2022-09-07T03:40:09.086Z,95991.06
2022-09-07T03:42:36.069Z,95983.50
2022-09-07T03:45:03.718Z,95995.09
2022-09-07T03:47:30.431Z,95992.97
2022-09-07T03:49:56.790Z,95991.94
2022-09-07T03:52:23.518Z,95991.44
2022-09-07T03:54:49.875Z,95995.13
2022-09-07T03:57:16.263Z,95997.91
2022-09-07T03:59:43.115Z,95999.94
2022-09-07T04:02:09.503Z,96006.06
2022-09-07T04:04:35.932Z,95999.66
2022-09-07T04:07:03.051Z,96008.47
2022-09-07T04:09:30.373Z,96008.53
2022-09-07T04:11:56.744Z,96004.47
2022-09-07T04:14:23.624Z,96012.72
2022-09-07T04:16:51.536Z,96016.47
2022-09-07T04:19:18.108Z,96014.53
2022-09-07T04:21:46.530Z,96017.50
2022-09-07T04:24:17.830Z,96017.06
2022-09-07T04:26:44.783Z,96020.28
2022-09-07T04:29:12.469Z,96018.75
2022-09-07T04:31:40.062Z,96027.09
2022-09-07T04:34:07.130Z,96020.06
2022-09-07T04:36:34.676Z,96019.97
2022-09-07T04:39:03.671Z,96016.25
2022-09-07T04:41:31.630Z,96021.31
2022-09-07T04:44:00.690Z,96011.16
2022-09-07T04:46:34.091Z,96011.66
2022-09-07T04:49:03.795Z,96012.53
2022-09-07T04:51:32.531Z,96016.75
2022-09-07T04:54:01.568Z,96022.66
2022-09-07T04:56:28.963Z,96019.94
2022-09-07T04:58:55.318Z,96024.25
2022-09-07T05:01:24.140Z,96030.16
2022-09-07T05:03:51.403Z,96029.63
2022-09-07T05:06:19.490Z,96036.13
2022-09-07T05:08:48.447Z,96048.22
2022-09-07T05:11:16.503Z,96042.09
2022-09-07T05:13:42.967Z,96045.31
2022-09-07T05:16:15.401Z,96049.31
2022-09-07T05:18:42.867Z,96049.53
2022-09-07T05:21:23.744Z,96042.53
2022-09-07T05:23:52.215Z,96044.13
2022-09-07T05:26:19.784Z,96049.56
2022-09-07T05:28:46.936Z,96043.19
2022-09-07T05:31:20.094Z,96045.28
2022-09-07T05:36:39.526Z,96042.09
2022-09-07T05:39:06.802Z,96043.81
2022-09-07T05:41:33.179Z,96045.19
2022-09-07T05:46:46.439Z,96048.72
2022-09-07T05:49:13.159Z,96054.31
2022-09-07T05:51:39.755Z,96062.34
2022-09-07T05:54:06.215Z,96057.09
2022-09-07T05:56:36.835Z,96059.00
2022-09-07T05:59:04.124Z,96064.69
2022-09-07T06:01:30.919Z,96051.94
2022-09-07T06:03:57.786Z,96057.06
2022-09-07T06:06:24.724Z,96067.06
2022-09-07T06:08:52.918Z,96063.28
2022-09-07T06:11:25.083Z,96060.16
2022-09-07T06:13:52.077Z,96064.75
2022-09-07T06:16:19.600Z,96058.97
2022-09-07T06:18:48.563Z,96063.28
2022-09-07T06:21:21.312Z,96067.88
2022-09-07T06:23:49.708Z,96075.59
2022-09-07T06:26:18.087Z,96078.91
2022-09-07T06:28:49.691Z,96067.56
2022-09-07T06:31:20.455Z,96070.25
2022-09-07T06:33:48.503Z,96073.41
2022-09-07T06:36:23.379Z,96079.84
2022-09-07T06:38:51.712Z,96088.03
2022-09-07T06:44:14.202Z,96068.19
2022-09-07T06:49:27.583Z,96078.38
2022-09-07T06:51:53.978Z,96089.44
2022-09-07T06:57:09.757Z,96104.59
2022-09-07T06:59:37.161Z,96099.69
2022-09-07T07:02:04.963Z,96091.41
2022-09-07T07:04:33.252Z,96085.34
2022-09-07T07:07:02.807Z,96089.44
2022-09-07T07:09:29.834Z,96093.53
2022-09-07T07:11:56.252Z,96102.59
2022-09-07T07:14:22.597Z,96093.44
2022-09-07T07:16:49.447Z,96100.72
2022-09-07T07:19:16.123Z,96109.06
2022-09-07T07:22:07.993Z,96109.88
2022-09-07T07:24:29.334Z,96110.88
2022-09-07T07:26:55.791Z,96107.63
2022-09-07T07:29:24.017Z,96107.69
2022-09-07T07:31:52.699Z,96118.72
2022-09-07T07:34:19.548Z,96109.31
2022-09-07T07:36:45.857Z,96109.88
2022-09-07T07:42:01.723Z,96119.28
2022-09-07T07:44:31.838Z,96117.91
2022-09-07T07:46:58.199Z,96116.00
2022-09-07T07:49:24.768Z,96111.44
2022-09-07T07:54:40.619Z,96101.81
2022-09-07T07:57:07.646Z,96107.97
2022-09-07T07:59:35.361Z,96102.88
2022-09-07T08:02:05.005Z,96109.59
2022-09-07T08:04:35.628Z,96117.13
2022-09-07T08:07:08.659Z,96116.56
2022-09-07T08:09:37.660Z,96127.03
2022-09-07T08:12:04.114Z,96125.63
2022-09-07T08:14:30.444Z,96132.94
2022-09-07T08:16:57.194Z,96136.47
2022-09-07T08:19:23.487Z,96134.22
2022-09-07T08:21:49.792Z,96130.06
2022-09-07T08:24:16.125Z,96125.41
2022-09-07T08:26:42.964Z,96135.31
2022-09-07T08:29:09.301Z,96138.91
2022-09-07T08:31:36.042Z,96127.63
2022-09-07T08:34:02.390Z,96136.84
2022-09-07T08:36:31.592Z,96129.38
2022-09-07T08:38:58.291Z,96134.50
2022-09-07T08:41:30.722Z,96134.81
2022-09-07T08:44:24.100Z,96139.63
2022-09-07T08:46:59.126Z,96138.91
2022-09-07T08:49:38.199Z,96141.34
2022-09-07T08:52:14.907Z,96141.88
2022-09-07T08:54:45.483Z,96137.44
2022-09-07T08:57:21.227Z,96134.84
2022-09-07T09:00:10.987Z,96132.06
2022-09-07T09:02:43.536Z,96144.41
2022-09-07T09:05:37.187Z,96127.66
2022-09-07T09:08:23.955Z,96133.56
2022-09-07T09:11:04.412Z,96129.94
2022-09-07T09:14:21.393Z,96119.03
2022-09-07T09:16:54.449Z,96107.16
2022-09-07T09:19:55.379Z,96110.69
2022-09-07T09:22:25.923Z,96097.16
2022-09-07T09:25:16.847Z,96106.84
2022-09-07T09:27:43.456Z,96093.75
2022-09-07T09:30:14.133Z,96091.34
2022-09-07T09:32:43.675Z,96091.31
2022-09-07T09:35:16.744Z,96084.97
2022-09-07T09:37:44.383Z,96085.03
2022-09-07T09:40:26.421Z,96092.06
2022-09-07T09:43:06.084Z,96080.00
2022-09-07T09:48:40.252Z,96080.06
2022-09-07T09:53:56.568Z,96071.25
2022-09-07T09:56:39.962Z,96076.91
2022-09-07T10:05:29.580Z,96067.19
2022-09-07T10:07:57.115Z,96049.50
2022-09-07T10:10:25.260Z,96040.97
2022-09-07T10:12:55.835Z,96045.72
2022-09-07T10:15:41.914Z,96042.41
2022-09-07T10:18:19.694Z,96042.09
2022-09-07T10:20:46.048Z,96055.31
2022-09-07T10:23:24.496Z,96047.78
2022-09-07T10:25:51.212Z,96047.69
2022-09-07T10:28:22.984Z,96026.81
2022-09-07T10:31:14.734Z,96027.34
2022-09-07T10:34:25.818Z,96027.31
2022-09-07T10:36:50.786Z,96033.41
2022-09-07T10:39:31.553Z,96026.75
2022-09-07T10:42:07.758Z,96019.47
2022-09-07T10:45:02.324Z,96016.91
2022-09-07T10:47:59.806Z,96010.34
2022-09-07T10:50:32.810Z,96015.47
2022-09-07T10:53:47.256Z,96019.78
2022-09-07T10:56:19.436Z,96017.69
2022-09-07T10:59:18.089Z,96010.00
2022-09-07T11:01:59.034Z,96005.81
2022-09-07T11:04:30.706Z,95998.28
2022-09-07T11:07:18.084Z,96001.81
2022-09-07T11:10:03.227Z,95994.25
2022-09-07T11:12:36.364Z,95972.66
2022-09-07T11:15:27.382Z,95962.38
2022-09-07T11:18:02.738Z,95972.81
2022-09-07T11:20:54.853Z,95978.22
2022-09-07T11:23:43.922Z,95985.00
2022-09-07T11:26:20.435Z,95971.13
2022-09-07T11:31:51.748Z,95982.63
2022-09-07T11:34:26.300Z,95981.34
2022-09-07T11:37:02.543Z,95986.50
2022-09-07T11:39:42.169Z,95976.69
2022-09-07T11:45:41.500Z,95968.28
2022-09-07T11:48:12.244Z,95963.97
2022-09-07T11:50:46.334Z,95973.44
2022-09-07T11:53:21.999Z,95964.75
2022-09-07T11:55:54.701Z,95965.59
2022-09-07T11:58:33.153Z,95970.25
2022-09-07T12:01:16.952Z,95977.09
2022-09-07T12:03:55.384Z,95979.97
2022-09-07T12:06:43.284Z,95978.47
2022-09-07T12:09:27.638Z,95971.38
2022-09-07T12:12:29.527Z,95969.78
2022-09-07T12:15:19.392Z,95970.25
2022-09-07T12:18:01.164Z,95960.63
2022-09-07T12:20:42.338Z,95955.53
2022-09-07T12:23:23.861Z,95956.41
2022-09-07T12:25:51.618Z,95952.31
2022-09-07T12:28:37.873Z,95950.38
2022-09-07T12:31:10.414Z,95950.22
2022-09-07T12:33:38.912Z,95944.53
2022-09-07T12:36:27.071Z,95945.16
2022-09-07T12:39:06.508Z,95934.22
2022-09-07T12:41:46.729Z,95931.09
2022-09-07T12:44:27.203Z,95914.88
2022-09-07T12:46:56.920Z,95909.94
2022-09-07T12:50:07.048Z,95911.34
2022-09-07T12:52:42.296Z,95907.97
2022-09-07T12:55:28.067Z,95911.22
2022-09-07T12:58:29.568Z,95917.94
2022-09-07T13:01:06.473Z,95919.72
2022-09-07T13:03:53.534Z,95911.94
2022-09-07T13:07:02.887Z,95902.28
2022-09-07T13:09:40.134Z,95898.63
2022-09-07T13:15:37.970Z,95898.34
2022-09-07T13:18:04.865Z,95896.44
2022-09-07T13:20:36.225Z,95887.94
2022-09-07T13:23:25.667Z,95894.81
2022-09-07T13:25:54.885Z,95891.09
2022-09-07T13:28:27.123Z,95889.81
2022-09-07T13:31:06.498Z,95895.22
2022-09-07T13:33:36.088Z,95889.81
2022-09-07T13:36:05.294Z,95886.91
2022-09-07T13:38:34.843Z,95879.28
2022-09-07T13:41:12.496Z,95886.25
2022-09-07T13:43:39.918Z,95876.91
2022-09-07T13:46:18.423Z,95875.75
2022-09-07T13:48:55.299Z,95877.63
2022-09-07T13:51:31.032Z,95875.50
2022-09-07T13:54:06.190Z,95871.19
2022-09-07T13:56:51.319Z,95875.78
2022-09-07T13:59:26.797Z,95869.69
2022-09-07T14:01:55.010Z,95862.97
2022-09-07T14:04:34.870Z,95866.25
2022-09-07T14:07:15.844Z,95863.38
2022-09-07T14:09:42.458Z,95854.75
2022-09-07T14:12:42.551Z,95849.84
2022-09-07T14:15:25.418Z,95854.91
2022-09-07T14:18:21.482Z,95851.78
2022-09-07T14:20:50.390Z,95842.59
2022-09-07T14:23:30.211Z,95842.69
2022-09-07T14:26:16.523Z,95838.25
2022-09-07T14:28:46.410Z,95825.88
2022-09-07T14:31:15.894Z,95822.63
2022-09-07T14:34:01.300Z,95822.41
2022-09-07T14:36:44.738Z,95814.97
2022-09-07T14:39:14.317Z,95809.56
2022-09-07T14:41:42.011Z,95819.00
2022-09-07T14:44:45.813Z,95814.97
2022-09-07T14:47:29.654Z,95816.75
2022-09-07T14:50:06.117Z,95807.97
2022-09-07T14:52:43.619Z,95804.78
2022-09-07T14:55:29.888Z,95801.63
2022-09-07T14:58:14.678Z,95801.31
2022-09-07T15:00:44.647Z,95806.56
2022-09-07T15:03:34.249Z,95789.66
2022-09-07T15:06:02.443Z,95794.88
2022-09-07T15:08:44.187Z,95792.91
2022-09-07T15:11:36.188Z,95794.56
2022-09-07T15:14:20.539Z,95786.75
2022-09-07T15:19:50.788Z,95792.03
2022-09-07T15:22:21.403Z,95799.50
2022-09-07T15:24:48.890Z,95794.75
2022-09-07T15:27:30.227Z,95792.50
2022-09-07T15:29:56.569Z,95795.91
2022-09-07T15:32:22.979Z,95793.88
2022-09-07T15:34:50.126Z,95792.97
2022-09-07T15:40:16.736Z,95791.44
2022-09-07T15:45:30.045Z,95786.19
2022-09-07T15:47:56.858Z,95784.84
2022-09-07T15:50:23.604Z,95789.19
2022-09-07T15:52:50.830Z,95782.72
2022-09-07T15:55:17.856Z,95778.53
2022-09-07T15:57:50.039Z,95778.03
2022-09-07T16:00:17.960Z,95783.13
2022-09-07T16:05:31.698Z,95786.88
2022-09-07T16:10:45.132Z,95784.31
2022-09-07T16:13:16.363Z,95777.59
2022-09-07T16:15:46.309Z,95777.38
2022-09-07T16:18:16.573Z,95767.59
2022-09-07T16:20:43.481Z,95759.13
2022-09-07T16:23:14.248Z,95766.84
2022-09-07T16:25:42.218Z,95760.66
2022-09-07T16:28:08.892Z,95762.25
2022-09-07T16:30:39.706Z,95757.63
2022-09-07T16:33:06.325Z,95766.44
2022-09-07T16:35:33.409Z,95761.31
2022-09-07T16:40:46.928Z,95758.56
2022-09-07T16:43:13.480Z,95749.13
2022-09-07T16:48:26.658Z,95747.50
2022-09-07T16:51:00.333Z,95736.91
2022-09-07T16:53:34.138Z,95730.78
2022-09-07T16:56:02.312Z,95743.13
2022-09-07T16:58:37.464Z,95732.94
2022-09-07T17:01:17.517Z,95738.94
2022-09-07T17:03:45.172Z,95729.47
2022-09-07T17:06:13.946Z,95719.72
2022-09-07T17:08:41.090Z,95725.47
2022-09-07T17:11:19.448Z,95725.50
2022-09-07T17:13:46.617Z,95722.59
2022-09-07T17:16:20.919Z,95725.09
2022-09-07T17:21:37.131Z,95720.09
2022-09-07T17:24:05.131Z,95725.28
2022-09-07T17:26:32.824Z,95724.28
2022-09-07T17:29:01.078Z,95724.19
2022-09-07T17:34:19.837Z,95727.78
2022-09-07T17:36:46.725Z,95726.56
2022-09-07T17:39:16.205Z,95727.25
2022-09-07T17:41:44.016Z,95712.81
2022-09-07T17:44:10.839Z,95714.00
2022-09-07T17:46:37.656Z,95711.38
2022-09-07T17:49:06.885Z,95708.50
2022-09-07T17:51:33.328Z,95711.66
2022-09-07T17:54:09.561Z,95720.16
2022-09-07T17:56:37.454Z,95728.66
2022-09-07T18:01:50.887Z,95723.38
2022-09-07T18:04:17.439Z,95727.47
2022-09-07T18:06:43.844Z,95734.91
2022-09-07T18:09:11.415Z,95726.06
2022-09-07T18:11:46.857Z,95736.06
2022-09-07T18:14:15.201Z,95739.09
2022-09-07T18:16:43.227Z,95745.03
2022-09-07T18:19:11.519Z,95737.72
2022-09-07T18:21:40.962Z,95737.38
2022-09-07T18:24:13.616Z,95742.31
2022-09-07T18:26:41.225Z,95742.69
2022-09-07T18:29:25.946Z,95744.06
2022-09-07T18:31:54.949Z,95740.88
2022-09-07T18:34:22.016Z,95737.19
2022-09-07T18:36:48.404Z,95738.41
2022-09-07T18:39:15.049Z,95746.72
2022-09-07T18:41:42.424Z,95746.72
2022-09-07T18:46:55.853Z,95743.22
2022-09-07T18:49:22.202Z,95746.16
2022-09-07T18:54:35.217Z,95750.22
2022-09-07T18:57:01.669Z,95757.28
2022-09-07T18:59:29.552Z,95766.16
2022-09-07T19:02:00.136Z,95771.81
2022-09-07T19:05:49.618Z,95762.47
2022-09-07T19:07:17.696Z,95760.31
2022-09-07T19:09:44.039Z,95757.94
2022-09-07T19:12:10.454Z,95758.03
2022-09-07T19:14:37.411Z,95765.09
2022-09-07T19:17:03.840Z,95760.78
2022-09-07T19:19:30.302Z,95757.13
2022-09-07T19:21:58.637Z,95756.31
2022-09-07T19:24:25.684Z,95752.41
2022-09-07T19:26:54.704Z,95764.25
2022-09-07T19:29:23.893Z,95768.56
2022-09-07T19:32:04.489Z,95776.91
2022-09-07T19:34:33.431Z,95787.41
2022-09-07T19:37:00.907Z,95795.75
2022-09-07T19:39:27.626Z,95799.16
2022-09-07T19:41:54.378Z,95799.16
2022-09-07T19:44:20.746Z,95801.28
2022-09-07T19:46:47.405Z,95801.78
2022-09-07T19:49:14.682Z,95809.56
2022-09-07T19:51:42.019Z,95814.69
2022-09-07T19:54:12.519Z,95812.03
2022-09-07T19:56:41.279Z,95805.31
2022-09-07T19:59:08.788Z,95798.03
2022-09-07T20:01:36.131Z,95782.38
2022-09-07T20:04:08.153Z,95765.03
2022-09-07T20:06:37.580Z,95752.56
2022-09-07T20:09:04.800Z,95740.44
2022-09-07T20:11:33.175Z,95734.22
2022-09-07T20:13:59.499Z,95719.66
2022-09-07T20:16:27.135Z,95714.44
2022-09-07T20:18:54.241Z,95710.25
2022-09-07T20:21:22.475Z,95718.34
2022-09-07T20:23:49.473Z,95722.63
2022-09-07T20:26:19.576Z,95724.28
2022-09-07T20:28:46.295Z,95729.50
2022-09-07T20:31:15.415Z,95729.84
2022-09-07T20:33:43.905Z,95737.84
2022-09-07T20:36:13.309Z,95721.69
2022-09-07T20:38:41.937Z,95726.63
2022-09-07T20:41:13.804Z,95724.47
2022-09-07T20:43:40.338Z,95718.50
2022-09-07T20:46:09.973Z,95714.19
2022-09-07T20:48:37.383Z,95706.66
2022-09-07T20:51:06.471Z,95710.56
2022-09-07T20:53:33.331Z,95708.72
2022-09-07T20:56:00.012Z,95709.50
2022-09-07T20:58:27.205Z,95720.38
2022-09-07T21:00:53.652Z,95725.91
2022-09-07T21:03:20.113Z,95720.59
2022-09-07T21:05:47.116Z,95718.97
2022-09-07T21:08:14.109Z,95722.31
2022-09-07T21:10:41.497Z,95725.59
2022-09-07T21:13:08.547Z,95742.38
2022-09-07T21:15:39.113Z,95737.31
2022-09-07T21:18:08.208Z,95745.69
2022-09-07T21:20:34.578Z,95753.53
2022-09-07T21:23:00.937Z,95773.25
2022-09-07T21:25:27.741Z,95770.81
2022-09-07T21:27:54.108Z,95783.78
2022-09-07T21:30:20.506Z,95798.06
2022-09-07T21:32:51.819Z,95816.28
2022-09-07T21:35:18.953Z,95828.69
2022-09-07T21:37:45.945Z,95847.41
2022-09-07T21:40:12.985Z,95844.97
2022-09-07T21:42:39.502Z,95865.94
2022-09-07T21:45:07.344Z,95859.66
2022-09-07T21:47:34.367Z,95855.25
2022-09-07T21:50:01.349Z,95860.09
2022-09-07T21:52:27.680Z,95866.50
2022-09-07T21:54:54.028Z,95867.28
2022-09-07T21:57:20.788Z,95861.38
2022-09-07T21:59:47.125Z,95863.78
2022-09-07T22:02:13.499Z,95860.56
2022-09-07T22:04:40.289Z,95871.81
2022-09-07T22:07:07.691Z,95869.13
2022-09-07T22:09:34.055Z,95867.31
2022-09-07T22:12:01.535Z,95854.19
2022-09-07T22:14:28.137Z,95845.09
2022-09-07T22:16:54.471Z,95834.41
2022-09-07T22:19:21.535Z,95815.63
2022-09-07T22:21:47.969Z,95784.22
2022-09-07T22:24:15.162Z,95776.16
2022-09-07T22:26:42.233Z,95761.00
2022-09-07T22:29:11.309Z,95756.13
2022-09-07T22:31:39.075Z,95756.50
2022-09-07T22:34:10.850Z,95761.06
2022-09-07T22:36:43.392Z,95746.59
2022-09-07T22:39:18.456Z,95735.56
2022-09-07T22:41:47.039Z,95715.09
2022-09-07T22:44:15.729Z,95707.09
2022-09-07T22:46:44.322Z,95696.44
2022-09-07T22:49:12.893Z,95690.28
2022-09-07T22:51:39.988Z,95680.34
2022-09-07T22:54:06.394Z,95687.84
2022-09-07T22:56:33.988Z,95688.31
2022-09-07T22:59:04.107Z,95679.66
2022-09-07T23:01:31.961Z,95679.38
2022-09-07T23:03:59.560Z,95671.06
2022-09-07T23:06:30.635Z,95678.59
2022-09-07T23:08:58.903Z,95676.97
2022-09-07T23:11:25.971Z,95670.53
2022-09-07T23:13:54.372Z,95671.63
2022-09-07T23:16:21.368Z,95676.16
2022-09-07T23:18:48.265Z,95684.50
2022-09-07T23:21:15.768Z,95681.53
2022-09-07T23:23:42.204Z,95678.03
2022-09-07T23:26:09.023Z,95675.84
2022-09-07T23:28:36.033Z,95671.00
2022-09-07T23:31:02.564Z,95683.88
2022-09-07T23:33:28.987Z,95683.31
2022-09-07T23:36:02.056Z,95687.84
2022-09-07T23:38:29.782Z,95691.88
2022-09-07T23:40:57.391Z,95694.56
2022-09-07T23:43:27.044Z,95696.50
2022-09-07T23:45:53.944Z,95692.28
2022-09-07T23:48:21.561Z,95693.41
2022-09-07T23:50:48.853Z,95697.16
2022-09-07T23:53:16.081Z,95695.59
2022-09-07T23:55:42.535Z,95696.72
2022-09-07T23:58:09.835Z,95701.03
